sensor_id;sensor_type;location;lat;lon;timestamp;pressure;altitude;pressure_sealevel;temperature;humidity
31717;BME280;18301;51.076;17.046;2023-03-01T00:03:07;101598.00;;;0.34;67.17
31717;BME280;18301;51.076;17.046;2023-03-01T00:08:09;101612.25;;;0.27;67.47
31717;BME280;18301;51.076;17.046;2023-03-01T00:13:10;101611.50;;;0.15;67.45
31717;BME280;18301;51.076;17.046;2023-03-01T00:18:12;101615.97;;;0.12;68.02
31717;BME280;18301;51.076;17.046;2023-03-01T00:23:13;101608.94;;;0.08;67.98
31717;BME280;18301;51.076;17.046;2023-03-01T00:28:15;101602.78;;;0.04;68.07
31717;BME280;18301;51.076;17.046;2023-03-01T00:33:17;101608.09;;;0.04;68.33
31717;BME280;18301;51.076;17.046;2023-03-01T00:38:19;101599.31;;;-0.01;68.38
31717;BME280;18301;51.076;17.046;2023-03-01T00:43:21;101573.66;;;-0.02;68.42
31717;BME280;18301;51.076;17.046;2023-03-01T00:48:22;101571.09;;;-0.08;68.47
31717;BME280;18301;51.076;17.046;2023-03-01T00:53:23;101564.94;;;-0.12;68.53
31717;BME280;18301;51.076;17.046;2023-03-01T00:58:25;101580.81;;;-0.10;68.52
31717;BME280;18301;51.076;17.046;2023-03-01T01:03:27;101575.56;;;-0.13;68.66
31717;BME280;18301;51.076;17.046;2023-03-01T01:08:28;101577.34;;;-0.14;68.73
31717;BME280;18301;51.076;17.046;2023-03-01T01:13:30;101572.13;;;-0.21;68.67
31717;BME280;18301;51.076;17.046;2023-03-01T01:18:32;101566.84;;;-0.26;68.85
31717;BME280;18301;51.076;17.046;2023-03-01T01:23:33;101563.34;;;-0.30;68.57
31717;BME280;18301;51.076;17.046;2023-03-01T01:28:35;101567.81;;;-0.35;69.11
31717;BME280;18301;51.076;17.046;2023-03-01T01:33:37;101564.31;;;-0.37;69.01
31717;BME280;18301;51.076;17.046;2023-03-01T01:38:38;101549.34;;;-0.44;68.78
31717;BME280;18301;51.076;17.046;2023-03-01T01:43:43;101544.94;;;-0.45;69.21
31717;BME280;18301;51.076;17.046;2023-03-01T01:48:46;101544.13;;;-0.52;69.36
31717;BME280;18301;51.076;17.046;2023-03-01T01:53:53;101535.28;;;-0.49;69.47
31717;BME280;18301;51.076;17.046;2023-03-01T01:58:57;101530.94;;;-0.59;69.64
31717;BME280;18301;51.076;17.046;2023-03-01T02:03:59;101531.00;;;-0.64;69.63
31717;BME280;18301;51.076;17.046;2023-03-01T02:09:05;101523.94;;;-0.66;69.48
31717;BME280;18301;51.076;17.046;2023-03-01T02:14:08;101520.41;;;-0.65;69.80
31717;BME280;18301;51.076;17.046;2023-03-01T02:19:31;101530.19;;;-0.71;69.90
31717;BME280;18301;51.076;17.046;2023-03-01T02:30:04;101532.94;;;-0.83;70.01
31717;BME280;18301;51.076;17.046;2023-03-01T02:35:09;101529.44;;;-0.88;69.67
31717;BME280;18301;51.076;17.046;2023-03-01T02:40:17;101525.91;;;-0.90;69.68
31717;BME280;18301;51.076;17.046;2023-03-01T02:45:20;101529.47;;;-0.91;69.66
31717;BME280;18301;51.076;17.046;2023-03-01T02:51:21;101531.28;;;-0.99;69.89
31717;BME280;18301;51.076;17.046;2023-03-01T02:55:56;101539.28;;;-1.01;70.16
31717;BME280;18301;51.076;17.046;2023-03-01T03:00:58;101541.03;;;-1.01;69.80
31717;BME280;18301;51.076;17.046;2023-03-01T03:06:02;101531.34;;;-1.05;69.66
31717;BME280;18301;51.076;17.046;2023-03-01T03:11:03;101529.56;;;-1.03;70.20
31717;BME280;18301;51.076;17.046;2023-03-01T03:16:05;101530.44;;;-1.03;70.33
31717;BME280;18301;51.076;17.046;2023-03-01T03:21:08;101538.41;;;-1.04;69.67
31717;BME280;18301;51.076;17.046;2023-03-01T03:26:11;101529.59;;;-1.06;69.94
31717;BME280;18301;51.076;17.046;2023-03-01T03:31:14;101509.34;;;-1.15;70.23
31717;BME280;18301;51.076;17.046;2023-03-01T03:36:17;101513.78;;;-1.19;70.21
31717;BME280;18301;51.076;17.046;2023-03-01T03:41:19;101510.28;;;-1.24;70.40
31717;BME280;18301;51.076;17.046;2023-03-01T03:46:20;101509.44;;;-1.26;70.09
31717;BME280;18301;51.076;17.046;2023-03-01T03:51:22;101503.34;;;-1.35;69.97
31717;BME280;18301;51.076;17.046;2023-03-01T03:56:24;101499.78;;;-1.34;70.13
31717;BME280;18301;51.076;17.046;2023-03-01T04:01:29;101500.66;;;-1.34;70.07
31717;BME280;18301;51.076;17.046;2023-03-01T04:06:30;101480.44;;;-1.41;70.17
31717;BME280;18301;51.076;17.046;2023-03-01T04:11:32;101487.44;;;-1.37;70.60
31717;BME280;18301;51.076;17.046;2023-03-01T04:16:35;101489.22;;;-1.39;70.50
31717;BME280;18301;51.076;17.046;2023-03-01T04:21:37;101483.94;;;-1.42;70.16
31717;BME280;18301;51.076;17.046;2023-03-01T04:26:38;101489.22;;;-1.39;69.98
31717;BME280;18301;51.076;17.046;2023-03-01T04:31:40;101491.09;;;-1.53;70.81
31717;BME280;18301;51.076;17.046;2023-03-01T04:36:42;101487.53;;;-1.49;70.54
31717;BME280;18301;51.076;17.046;2023-03-01T04:41:44;101491.94;;;-1.51;70.78
31717;BME280;18301;51.076;17.046;2023-03-01T04:46:48;101478.69;;;-1.48;70.53
31717;BME280;18301;51.076;17.046;2023-03-01T04:51:50;101492.84;;;-1.52;70.43
31717;BME280;18301;51.076;17.046;2023-03-01T04:56:52;101492.81;;;-1.45;70.44
31717;BME280;18301;51.076;17.046;2023-03-01T05:01:56;101503.41;;;-1.49;70.83
31717;BME280;18301;51.076;17.046;2023-03-01T05:06:58;101492.81;;;-1.49;70.40
31717;BME280;18301;51.076;17.046;2023-03-01T05:12:00;101495.53;;;-1.54;70.35
31717;BME280;18301;51.076;17.046;2023-03-01T05:17:01;101497.28;;;-1.56;70.21
31717;BME280;18301;51.076;17.046;2023-03-01T05:22:05;101489.34;;;-1.57;70.53
31717;BME280;18301;51.076;17.046;2023-03-01T05:27:06;101486.75;;;-1.62;70.48
31717;BME280;18301;51.076;17.046;2023-03-01T05:32:08;101492.91;;;-1.62;70.73
31717;BME280;18301;51.076;17.046;2023-03-01T05:37:10;101492.03;;;-1.64;70.95
31717;BME280;18301;51.076;17.046;2023-03-01T05:42:12;101492.91;;;-1.60;70.61
31717;BME280;18301;51.076;17.046;2023-03-01T05:47:13;101500.88;;;-1.63;70.94
31717;BME280;18301;51.076;17.046;2023-03-01T05:52:15;101499.03;;;-1.53;71.02
31717;BME280;18301;51.076;17.046;2023-03-01T05:57:16;101506.00;;;-1.35;71.01
31717;BME280;18301;51.076;17.046;2023-03-01T06:02:18;101501.59;;;-1.38;70.55
31717;BME280;18301;51.076;17.046;2023-03-01T06:07:19;101505.03;;;-1.28;70.35
31717;BME280;18301;51.076;17.046;2023-03-01T06:12:21;101508.50;;;-1.19;70.76
31717;BME280;18301;51.076;17.046;2023-03-01T06:17:22;101512.00;;;-1.13;70.98
31717;BME280;18301;51.076;17.046;2023-03-01T06:22:24;101503.06;;;-1.03;70.68
31717;BME280;18301;51.076;17.046;2023-03-01T06:27:25;101499.47;;;-0.96;70.39
31717;BME280;18301;51.076;17.046;2023-03-01T06:32:27;101489.66;;;-0.85;70.83
31717;BME280;18301;51.076;17.046;2023-03-01T06:37:28;101499.22;;;-0.68;70.92
31717;BME280;18301;51.076;17.046;2023-03-01T06:42:30;101491.97;;;-0.51;70.98
31717;BME280;18301;51.076;17.046;2023-03-01T06:47:32;101482.97;;;-0.38;70.80
31717;BME280;18301;51.076;17.046;2023-03-01T06:52:34;101484.53;;;-0.18;70.33
31717;BME280;18301;51.076;17.046;2023-03-01T06:57:36;101474.78;;;-0.15;70.46
31717;BME280;18301;51.076;17.046;2023-03-01T07:02:37;101473.00;;;-0.14;70.68
31717;BME280;18301;51.076;17.046;2023-03-01T07:07:39;101473.78;;;-0.06;71.00
31717;BME280;18301;51.076;17.046;2023-03-01T07:12:40;101479.03;;;-0.03;71.06
31717;BME280;18301;51.076;17.046;2023-03-01T07:17:42;101488.69;;;0.04;71.29
31717;BME280;18301;51.076;17.046;2023-03-01T07:22:45;101494.56;;;0.25;71.10
31717;BME280;18301;51.076;17.046;2023-03-01T07:27:51;101492.63;;;0.39;70.76
31717;BME280;18301;51.076;17.046;2023-03-01T07:32:54;101488.88;;;0.54;70.51
31717;BME280;18301;51.076;17.046;2023-03-01T07:37:56;101477.81;;;0.81;70.33
31717;BME280;18301;51.076;17.046;2023-03-01T07:42:58;101485.41;;;1.03;69.65
31717;BME280;18301;51.076;17.046;2023-03-01T07:47:59;101470.25;;;1.09;69.84
31717;BME280;18301;51.076;17.046;2023-03-01T07:53:01;101461.06;;;1.26;69.54
31717;BME280;18301;51.076;17.046;2023-03-01T07:58:03;101454.28;;;1.57;68.59
31717;BME280;18301;51.076;17.046;2023-03-01T08:03:05;101459.19;;;1.77;68.07
31717;BME280;18301;51.076;17.046;2023-03-01T08:08:07;101450.72;;;2.00;67.13
31717;BME280;18301;51.076;17.046;2023-03-01T08:13:08;101446.16;;;2.07;66.78
31717;BME280;18301;51.076;17.046;2023-03-01T08:18:10;101431.94;;;2.45;65.99
31717;BME280;18301;51.076;17.046;2023-03-01T08:23:11;101425.84;;;2.78;64.88
31717;BME280;18301;51.076;17.046;2023-03-01T08:28:13;101449.47;;;2.91;63.45
31717;BME280;18301;51.076;17.046;2023-03-01T08:33:14;101443.81;;;3.05;63.75
31717;BME280;18301;51.076;17.046;2023-03-01T08:38:16;101438.78;;;3.27;62.03
31717;BME280;18301;51.076;17.046;2023-03-01T08:43:17;101442.09;;;3.35;60.77
31717;BME280;18301;51.076;17.046;2023-03-01T08:48:19;101448.94;;;3.45;60.46
31717;BME280;18301;51.076;17.046;2023-03-01T08:53:21;101453.50;;;3.73;59.58
31717;BME280;18301;51.076;17.046;2023-03-01T08:58:22;101442.66;;;3.79;59.83
31717;BME280;18301;51.076;17.046;2023-03-01T09:03:24;101444.03;;;3.92;57.62
31717;BME280;18301;51.076;17.046;2023-03-01T09:08:26;101446.44;;;4.02;57.55
31717;BME280;18301;51.076;17.046;2023-03-01T09:13:28;101444.63;;;4.02;56.12
31717;BME280;18301;51.076;17.046;2023-03-01T09:18:32;101445.41;;;4.06;56.79
31717;BME280;18301;51.076;17.046;2023-03-01T09:23:40;101439.22;;;4.33;57.12
31717;BME280;18301;51.076;17.046;2023-03-01T09:28:42;101433.19;;;4.55;56.53
31717;BME280;18301;51.076;17.046;2023-03-01T09:33:46;101433.66;;;4.68;55.45
31717;BME280;18301;51.076;17.046;2023-03-01T09:38:49;101431.34;;;4.57;53.96
31717;BME280;18301;51.076;17.046;2023-03-01T09:43:54;101408.50;;;4.19;54.38
31717;BME280;18301;51.076;17.046;2023-03-01T09:49:02;101418.50;;;4.12;54.56
31717;BME280;18301;51.076;17.046;2023-03-01T09:54:06;101411.06;;;4.22;55.88
31717;BME280;18301;51.076;17.046;2023-03-01T09:59:22;101424.34;;;4.79;55.15
31717;BME280;18301;51.076;17.046;2023-03-01T10:09:33;101409.28;;;5.28;53.56
31717;BME280;18301;51.076;17.046;2023-03-01T10:14:39;101401.66;;;5.43;53.13
31717;BME280;18301;51.076;17.046;2023-03-01T10:19:46;101415.38;;;5.57;52.00
31717;BME280;18301;51.076;17.046;2023-03-01T10:24:50;101401.94;;;5.59;52.48
31717;BME280;18301;51.076;17.046;2023-03-01T10:35:25;101375.13;;;6.07;51.17
31717;BME280;18301;51.076;17.046;2023-03-01T10:40:26;101392.78;;;6.13;48.85
31717;BME280;18301;51.076;17.046;2023-03-01T10:45:39;101382.00;;;5.67;49.75
31717;BME280;18301;51.076;17.046;2023-03-01T10:50:42;101376.59;;;5.91;49.52
31717;BME280;18301;51.076;17.046;2023-03-01T10:55:44;101378.09;;;5.99;49.12
31717;BME280;18301;51.076;17.046;2023-03-01T11:06:01;101364.84;;;6.18;48.31
31717;BME280;18301;51.076;17.046;2023-03-01T11:11:06;101349.59;;;5.97;48.25
31717;BME280;18301;51.076;17.046;2023-03-01T11:16:11;101353.75;;;6.28;47.12
31717;BME280;18301;51.076;17.046;2023-03-01T11:21:15;101349.13;;;6.09;47.72
31717;BME280;18301;51.076;17.046;2023-03-01T11:26:17;101346.66;;;6.27;47.76
31717;BME280;18301;51.076;17.046;2023-03-01T11:31:20;101356.16;;;6.34;47.88
31717;BME280;18301;51.076;17.046;2023-03-01T11:36:35;101354.00;;;6.21;46.51
31717;BME280;18301;51.076;17.046;2023-03-01T11:41:39;101349.28;;;6.28;47.48
31717;BME280;18301;51.076;17.046;2023-03-01T11:47:03;101355.13;;;6.38;47.05
31717;BME280;18301;51.076;17.046;2023-03-01T11:57:43;101331.28;;;6.52;46.01
31717;BME280;18301;51.076;17.046;2023-03-01T12:03:05;101319.88;;;6.47;45.62
31717;BME280;18301;51.076;17.046;2023-03-01T12:19:05;101317.97;;;6.29;44.17
31717;BME280;18301;51.076;17.046;2023-03-01T12:35:23;101306.09;;;6.56;42.65
31717;BME280;18301;51.076;17.046;2023-03-01T12:46:14;101287.19;;;6.59;42.84
31717;BME280;18301;51.076;17.046;2023-03-01T12:51:24;101280.47;;;6.49;44.00
31717;BME280;18301;51.076;17.046;2023-03-01T12:56:29;101261.88;;;6.85;42.26
31717;BME280;18301;51.076;17.046;2023-03-01T13:11:57;101259.22;;;6.85;38.64
31717;BME280;18301;51.076;17.046;2023-03-01T13:16:58;101254.19;;;6.78;37.09
31717;BME280;18301;51.076;17.046;2023-03-01T13:22:27;101251.03;;;6.88;37.11
31717;BME280;18301;51.076;17.046;2023-03-01T13:27:30;101254.13;;;6.79;36.48
31717;BME280;18301;51.076;17.046;2023-03-01T13:32:35;101246.16;;;6.78;37.55
31717;BME280;18301;51.076;17.046;2023-03-01T13:37:45;101253.06;;;6.63;37.43
31717;BME280;18301;51.076;17.046;2023-03-01T13:42:51;101248.69;;;6.60;37.74
31717;BME280;18301;51.076;17.046;2023-03-01T13:48:11;101244.53;;;6.74;38.32
31717;BME280;18301;51.076;17.046;2023-03-01T13:53:19;101231.06;;;6.75;39.55
31717;BME280;18301;51.076;17.046;2023-03-01T13:58:25;101225.44;;;7.00;38.93
31717;BME280;18301;51.076;17.046;2023-03-01T14:03:28;101216.88;;;6.92;40.19
31717;BME280;18301;51.076;17.046;2023-03-01T14:08:31;101214.19;;;6.92;40.61
31717;BME280;18301;51.076;17.046;2023-03-01T14:13:58;101204.78;;;7.02;39.42
31717;BME280;18301;51.076;17.046;2023-03-01T14:19:15;101204.00;;;6.80;40.15
31717;BME280;18301;51.076;17.046;2023-03-01T14:24:44;101192.22;;;6.84;40.06
31717;BME280;18301;51.076;17.046;2023-03-01T14:30:02;101190.25;;;6.87;40.06
31717;BME280;18301;51.076;17.046;2023-03-01T14:35:24;101183.75;;;6.93;39.76
31717;BME280;18301;51.076;17.046;2023-03-01T14:40:32;101169.84;;;6.83;40.26
31717;BME280;18301;51.076;17.046;2023-03-01T14:45:34;101165.25;;;6.87;40.24
31717;BME280;18301;51.076;17.046;2023-03-01T14:50:41;101159.06;;;6.85;40.39
31717;BME280;18301;51.076;17.046;2023-03-01T14:55:46;101166.69;;;6.94;40.74
31717;BME280;18301;51.076;17.046;2023-03-01T15:01:01;101154.56;;;6.85;41.49
31717;BME280;18301;51.076;17.046;2023-03-01T15:06:04;101148.81;;;6.74;41.49
31717;BME280;18301;51.076;17.046;2023-03-01T15:11:27;101169.97;;;6.61;42.03
31717;BME280;18301;51.076;17.046;2023-03-01T15:16:30;101161.75;;;6.45;42.41
31717;BME280;18301;51.076;17.046;2023-03-01T15:21:35;101163.56;;;6.45;42.52
31717;BME280;18301;51.076;17.046;2023-03-01T15:26:42;101165.44;;;6.43;42.24
31717;BME280;18301;51.076;17.046;2023-03-01T15:32:04;101163.41;;;6.28;42.20
31717;BME280;18301;51.076;17.046;2023-03-01T15:42:36;101154.19;;;6.14;43.55
31717;BME280;18301;51.076;17.046;2023-03-01T15:47:40;101149.09;;;6.08;43.63
31717;BME280;18301;51.076;17.046;2023-03-01T15:52:42;101160.88;;;6.04;43.96
31717;BME280;18301;51.076;17.046;2023-03-01T15:57:44;101164.69;;;5.98;43.73
31717;BME280;18301;51.076;17.046;2023-03-01T16:02:46;101170.22;;;5.94;44.19
31717;BME280;18301;51.076;17.046;2023-03-01T16:07:47;101175.94;;;5.85;44.60
31717;BME280;18301;51.076;17.046;2023-03-01T16:12:50;101175.28;;;5.80;44.20
31717;BME280;18301;51.076;17.046;2023-03-01T16:17:53;101177.47;;;5.70;44.55
31717;BME280;18301;51.076;17.046;2023-03-01T16:22:58;101184.31;;;5.55;45.47
31717;BME280;18301;51.076;17.046;2023-03-01T16:28:01;101189.22;;;5.44;45.68
31717;BME280;18301;51.076;17.046;2023-03-01T16:33:06;101181.69;;;5.31;46.06
31717;BME280;18301;51.076;17.046;2023-03-01T16:38:31;101183.09;;;5.18;46.77
31717;BME280;18301;51.076;17.046;2023-03-01T16:43:32;101192.31;;;5.11;47.10
31717;BME280;18301;51.076;17.046;2023-03-01T16:48:34;101201.56;;;5.02;47.85
31717;BME280;18301;51.076;17.046;2023-03-01T16:53:36;101204.50;;;4.95;47.84
31717;BME280;18301;51.076;17.046;2023-03-01T16:58:39;101205.38;;;4.72;48.93
31717;BME280;18301;51.076;17.046;2023-03-01T17:03:41;101207.88;;;4.51;49.63
31717;BME280;18301;51.076;17.046;2023-03-01T17:08:43;101210.84;;;4.44;50.10
31717;BME280;18301;51.076;17.046;2023-03-01T17:13:45;101206.69;;;4.35;50.87
31717;BME280;18301;51.076;17.046;2023-03-01T17:18:47;101206.91;;;4.29;51.40
31717;BME280;18301;51.076;17.046;2023-03-01T17:23:54;101212.34;;;4.26;51.68
31717;BME280;18301;51.076;17.046;2023-03-01T17:28:56;101200.84;;;4.24;51.78
31717;BME280;18301;51.076;17.046;2023-03-01T17:33:59;101204.59;;;4.18;52.04
31717;BME280;18301;51.076;17.046;2023-03-01T17:39:02;101208.41;;;4.11;52.00
31717;BME280;18301;51.076;17.046;2023-03-01T17:44:03;101210.56;;;4.00;52.31
31717;BME280;18301;51.076;17.046;2023-03-01T17:49:05;101204.00;;;3.83;52.83
31717;BME280;18301;51.076;17.046;2023-03-01T17:54:06;101204.28;;;3.74;53.67
31717;BME280;18301;51.076;17.046;2023-03-01T17:59:08;101206.31;;;3.66;54.16
31717;BME280;18301;51.076;17.046;2023-03-01T18:04:09;101206.44;;;3.63;54.69
31717;BME280;18301;51.076;17.046;2023-03-01T18:09:11;101208.50;;;3.55;54.63
31717;BME280;18301;51.076;17.046;2023-03-01T18:14:12;101215.00;;;3.44;55.37
31717;BME280;18301;51.076;17.046;2023-03-01T18:19:14;101216.13;;;3.37;56.14
31717;BME280;18301;51.076;17.046;2023-03-01T18:24:15;101209.34;;;3.27;56.46
31717;BME280;18301;51.076;17.046;2023-03-01T18:29:17;101197.28;;;3.14;56.80
31717;BME280;18301;51.076;17.046;2023-03-01T18:34:18;101201.34;;;2.97;57.26
31717;BME280;18301;51.076;17.046;2023-03-01T18:39:20;101201.69;;;2.85;57.57
31717;BME280;18301;51.076;17.046;2023-03-01T18:44:21;101202.06;;;2.73;57.51
31717;BME280;18301;51.076;17.046;2023-03-01T18:49:24;101195.16;;;2.66;58.18
31717;BME280;18301;51.076;17.046;2023-03-01T18:54:26;101193.63;;;2.57;58.34
31717;BME280;18301;51.076;17.046;2023-03-01T18:59:28;101184.94;;;2.50;58.67
31717;BME280;18301;51.076;17.046;2023-03-01T19:04:30;101185.22;;;2.40;59.37
31717;BME280;18301;51.076;17.046;2023-03-01T19:09:31;101170.38;;;2.31;59.82
31717;BME280;18301;51.076;17.046;2023-03-01T19:14:33;101178.53;;;2.25;60.04
31717;BME280;18301;51.076;17.046;2023-03-01T19:19:35;101176.84;;;2.21;60.06
31717;BME280;18301;51.076;17.046;2023-03-01T19:24:36;101184.13;;;2.16;60.49
31717;BME280;18301;51.076;17.046;2023-03-01T19:29:38;101188.84;;;2.03;60.77
31717;BME280;18301;51.076;17.046;2023-03-01T19:34:40;101189.75;;;2.03;61.41
31717;BME280;18301;51.076;17.046;2023-03-01T19:39:42;101184.44;;;2.03;61.20
31717;BME280;18301;51.076;17.046;2023-03-01T19:44:43;101184.44;;;2.03;61.80
31717;BME280;18301;51.076;17.046;2023-03-01T19:49:45;101178.22;;;2.03;61.76
31717;BME280;18301;51.076;17.046;2023-03-01T19:54:47;101182.91;;;1.93;61.77
31717;BME280;18301;51.076;17.046;2023-03-01T19:59:50;101190.16;;;1.88;61.57
31717;BME280;18301;51.076;17.046;2023-03-01T20:04:52;101191.88;;;1.89;62.37
31717;BME280;18301;51.076;17.046;2023-03-01T20:09:53;101189.38;;;1.83;62.42
31717;BME280;18301;51.076;17.046;2023-03-01T20:14:55;101189.56;;;1.75;62.45
31717;BME280;18301;51.076;17.046;2023-03-01T20:19:57;101190.69;;;1.67;62.69
31717;BME280;18301;51.076;17.046;2023-03-01T20:24:58;101204.94;;;1.63;62.68
31717;BME280;18301;51.076;17.046;2023-03-01T20:30:00;101192.56;;;1.61;63.18
31717;BME280;18301;51.076;17.046;2023-03-01T20:35:01;101195.31;;;1.57;63.17
31717;BME280;18301;51.076;17.046;2023-03-01T20:40:04;101188.47;;;1.48;63.09
31717;BME280;18301;51.076;17.046;2023-03-01T20:45:06;101180.56;;;1.45;63.70
31717;BME280;18301;51.076;17.046;2023-03-01T20:50:08;101181.50;;;1.41;63.35
31717;BME280;18301;51.076;17.046;2023-03-01T20:55:10;101171.88;;;1.37;63.74
31717;BME280;18301;51.076;17.046;2023-03-01T21:00:12;101172.78;;;1.36;64.09
31717;BME280;18301;51.076;17.046;2023-03-01T21:05:14;101176.47;;;1.30;64.04
31717;BME280;18301;51.076;17.046;2023-03-01T21:10:15;101180.97;;;1.27;64.22
31717;BME280;18301;51.076;17.046;2023-03-01T21:15:17;101178.31;;;1.27;63.95
31717;BME280;18301;51.076;17.046;2023-03-01T21:20:29;101187.25;;;1.24;64.05
31717;BME280;18301;51.076;17.046;2023-03-01T21:25:31;101182.72;;;1.28;64.39
31717;BME280;18301;51.076;17.046;2023-03-01T21:30:35;101179.28;;;1.24;64.40
31717;BME280;18301;51.076;17.046;2023-03-01T21:35:36;101177.59;;;1.20;64.53
31717;BME280;18301;51.076;17.046;2023-03-01T21:40:38;101176.00;;;1.11;65.01
31717;BME280;18301;51.076;17.046;2023-03-01T21:45:39;101169.00;;;1.07;64.73
31717;BME280;18301;51.076;17.046;2023-03-01T21:50:41;101160.13;;;1.08;64.98
31717;BME280;18301;51.076;17.046;2023-03-01T21:55:47;101175.31;;;1.03;65.11
31717;BME280;18301;51.076;17.046;2023-03-01T22:00:48;101169.19;;;1.00;65.54
31717;BME280;18301;51.076;17.046;2023-03-01T22:05:58;101170.97;;;0.99;65.45
31717;BME280;18301;51.076;17.046;2023-03-01T22:11:01;101156.03;;;0.94;65.89
31717;BME280;18301;51.076;17.046;2023-03-01T22:16:02;101161.47;;;0.87;65.90
31717;BME280;18301;51.076;17.046;2023-03-01T22:21:07;101151.97;;;0.76;66.08
31717;BME280;18301;51.076;17.046;2023-03-01T22:26:33;101149.56;;;0.65;66.28
31717;BME280;18301;51.076;17.046;2023-03-01T22:31:35;101155.81;;;0.62;66.13
31717;BME280;18301;51.076;17.046;2023-03-01T22:36:37;101151.19;;;0.71;66.55
31717;BME280;18301;51.076;17.046;2023-03-01T22:41:44;101146.00;;;0.64;66.73
31717;BME280;18301;51.076;17.046;2023-03-01T22:46:46;101140.69;;;0.64;66.30
31717;BME280;18301;51.076;17.046;2023-03-01T22:51:48;101152.31;;;0.60;66.26
31717;BME280;18301;51.076;17.046;2023-03-01T22:56:50;101150.50;;;0.62;66.88
31717;BME280;18301;51.076;17.046;2023-03-01T23:01:52;101152.34;;;0.59;66.87
31717;BME280;18301;51.076;17.046;2023-03-01T23:06:54;101147.09;;;0.56;66.58
31717;BME280;18301;51.076;17.046;2023-03-01T23:11:56;101139.22;;;0.51;67.12
31717;BME280;18301;51.076;17.046;2023-03-01T23:17:00;101141.97;;;0.47;67.42
31717;BME280;18301;51.076;17.046;2023-03-01T23:22:02;101141.97;;;0.47;66.91
31717;BME280;18301;51.076;17.046;2023-03-01T23:27:03;101143.97;;;0.35;67.26
31717;BME280;18301;51.076;17.046;2023-03-01T23:32:05;101148.28;;;0.39;66.97
31717;BME280;18301;51.076;17.046;2023-03-01T23:37:06;101159.97;;;0.31;67.29
31717;BME280;18301;51.076;17.046;2023-03-01T23:42:10;101159.91;;;0.34;67.14
31717;BME280;18301;51.076;17.046;2023-03-01T23:47:11;101156.47;;;0.29;67.04
31717;BME280;18301;51.076;17.046;2023-03-01T23:52:13;101150.25;;;0.31;67.19
31717;BME280;18301;51.076;17.046;2023-03-01T23:57:15;101157.28;;;0.32;67.88
